Time;durP1;ratioP1;P1;durP2;ratioP2;P2;SDS_P1;SDS_P2;PMS_P1;PMS_P2;Temp;Humidity;BMP_temperature;BMP_pressure;BME280_temperature;BME280_humidity;BME280_pressure;Samples;Min_cycle;Max_cycle;Signal;HPM_P1;HPM_P2
2023/06/18 00:01:11;;;;;;;;;26.25;24.25;;;;;12.45;100.00;98177.47;4866184;28;101492;-76
2023/06/18 00:03:38;;;;;;;;;39.75;36.00;;;;;12.22;100.00;98161.84;4867557;28;101464;-76
2023/06/18 00:06:17;;;;;;;;;27.50;26.25;;;;;12.35;100.00;98177.97;4870134;29;101612;-77
2023/06/18 00:09:00;;;;;;;;;24.50;24.50;;;;;12.39;100.00;98187.31;4866882;28;103368;-76
2023/06/18 00:11:51;;;;;;;;;18.25;16.75;;;;;12.35;100.00;98180.69;4868319;28;102142;-76
2023/06/18 00:14:35;;;;;;;;;23.25;18.75;;;;;12.27;100.00;98170.13;4867960;28;101331;-76
2023/06/18 00:17:12;;;;;;;;;14.00;13.50;;;;;12.37;100.00;98177.78;4869219;29;101722;-76
2023/06/18 00:19:39;;;;;;;;;13.75;13.75;;;;;12.36;100.00;98178.81;4867582;29;103446;-76
2023/06/18 00:22:06;;;;;;;;;14.75;13.25;;;;;12.33;100.00;98174.69;4851639;29;101947;-76
2023/06/18 00:24:34;;;;;;;;;25.25;20.50;;;;;12.26;100.00;98164.94;4864954;28;101714;-76
2023/06/18 00:27:01;;;;;;;;;29.50;27.50;;;;;12.13;100.00;98146.91;4869111;29;101966;-76
2023/06/18 00:29:29;;;;;;;;;27.25;25.75;;;;;12.22;100.00;98166.41;4864349;28;103332;-76
2023/06/18 00:31:56;;;;;;;;;26.25;18.00;;;;;12.21;100.00;98181.03;4866545;28;101803;-76
2023/06/18 00:34:32;;;;;;;;;18.00;15.25;;;;;12.21;100.00;98178.31;4866762;29;101524;-76
2023/06/18 00:37:00;;;;;;;;;18.50;17.50;;;;;12.20;100.00;98166.66;4868143;29;101532;-76
2023/06/18 00:39:27;;;;;;;;;12.50;11.75;;;;;12.17;100.00;98168.97;4866814;28;103393;-76
2023/06/18 00:41:54;;;;;;;;;23.25;19.75;;;;;12.16;100.00;98170.84;4866396;28;102481;-76
2023/06/18 00:44:21;;;;;;;;;13.75;12.00;;;;;12.14;100.00;98167.53;4867654;29;101660;-76
2023/06/18 00:46:51;;;;;;;;;8.00;8.00;;;;;12.11;100.00;98168.00;4865609;28;101538;-76
2023/06/18 00:49:18;;;;;;;;;13.25;12.75;;;;;12.08;100.00;98168.41;4867406;29;103571;-77
2023/06/18 00:51:46;;;;;;;;;11.50;9.50;;;;;12.06;100.00;98170.53;4864704;28;101722;-77
2023/06/18 00:54:15;;;;;;;;;9.50;7.75;;;;;12.05;100.00;98174.28;4867756;29;101753;-76
2023/06/18 00:56:52;;;;;;;;;13.75;11.75;;;;;12.02;100.00;98169.31;4868865;29;101957;-76
2023/06/18 00:59:22;;;;;;;;;13.00;11.50;;;;;12.03;100.00;98170.97;4865698;29;103498;-77
2023/06/18 01:01:53;;;;;;;;;9.50;9.00;;;;;12.05;100.00;98171.59;4866793;28;101654;-77
2023/06/18 01:04:26;;;;;;;;;12.00;10.50;;;;;12.05;100.00;98174.28;4866347;29;101637;-77
2023/06/18 01:07:13;;;;;;;;;8.25;8.25;;;;;12.03;100.00;98176.38;4865600;28;101970;-76
2023/06/18 01:10:06;;;;;;;;;9.00;9.00;;;;;12.02;100.00;98163.91;4866105;29;102362;-76
2023/06/18 01:12:54;;;;;;;;;8.00;8.00;;;;;11.98;100.00;98168.91;4862514;28;101772;-77
2023/06/18 01:15:42;;;;;;;;;16.00;14.25;;;;;11.83;100.00;98175.72;4866519;29;101758;-76
2023/06/18 01:18:29;;;;;;;;;22.50;18.25;;;;;11.71;100.00;98169.31;4868492;29;101999;-76
2023/06/18 01:20:57;;;;;;;;;14.25;13.75;;;;;11.69;100.00;98165.97;4866768;29;104309;-76
2023/06/18 01:23:29;;;;;;;;;15.25;12.25;;;;;11.63;100.00;98151.44;4866295;28;101493;-76
2023/06/18 01:26:00;;;;;;;;;11.25;9.25;;;;;11.76;100.00;98169.50;4866031;29;101515;-76
2023/06/18 01:28:29;;;;;;;;;9.00;8.50;;;;;11.72;100.00;98158.28;4880879;28;101463;-76
2023/06/18 01:30:57;;;;;;;;;6.75;6.75;;;;;11.79;100.00;98171.78;4866381;29;103590;-76
2023/06/18 01:33:25;;;;;;;;;5.50;4.25;;;;;11.70;100.00;98164.94;4866592;28;101795;-76
2023/06/18 01:35:52;;;;;;;;;13.00;11.75;;;;;11.43;100.00;98127.22;4867240;28;101796;-77
2023/06/18 01:38:51;;;;;;;;;9.25;9.25;;;;;11.71;100.00;98172.81;4866626;28;101690;-76
2023/06/18 01:41:26;;;;;;;;;8.75;8.00;;;;;11.71;100.00;98177.44;4858175;28;103504;-76
2023/06/18 01:44:01;;;;;;;;;7.00;6.50;;;;;11.68;100.00;98185.97;4849212;29;101586;-77
2023/06/18 01:46:29;;;;;;;;;7.50;5.75;;;;;11.50;100.00;98159.63;4865758;29;101616;-76
2023/06/18 01:48:59;;;;;;;;;6.00;5.25;;;;;11.57;100.00;98182.09;4866770;29;102301;-77
2023/06/18 01:51:30;;;;;;;;;10.25;7.50;;;;;11.58;100.00;98176.44;4867792;28;103392;-76
2023/06/18 01:53:59;;;;;;;;;7.50;6.50;;;;;11.62;100.00;98185.81;4867034;29;101591;-76
2023/06/18 01:56:29;;;;;;;;;5.00;5.00;;;;;11.54;100.00;98167.09;4865636;29;101587;-76
2023/06/18 01:58:56;;;;;;;;;5.25;5.25;;;;;11.34;100.00;98144.75;4867345;29;101876;-76
2023/06/18 02:01:26;;;;;;;;;4.00;4.00;;;;;11.60;100.00;98182.50;4863141;28;103595;-76
2023/06/18 02:03:53;;;;;;;;;7.75;7.25;;;;;11.46;100.00;98158.41;4880688;28;101751;-76
2023/06/18 02:06:20;;;;;;;;;5.50;5.00;;;;;11.60;100.00;98182.50;4864410;28;101710;-76
2023/06/18 02:08:48;;;;;;;;;8.00;7.00;;;;;11.52;100.00;98163.81;4867576;29;101664;-76
2023/06/18 02:11:15;;;;;;;;;6.50;6.50;;;;;11.60;100.00;98185.19;4865214;28;103349;-76
2023/06/18 02:13:42;;;;;;;;;6.00;5.75;;;;;11.63;100.00;98187.47;4866865;28;101386;-76
2023/06/18 02:16:09;;;;;;;;;3.50;3.50;;;;;11.63;100.00;98200.16;4864108;29;101380;-76
2023/06/18 02:18:36;;;;;;;;;4.00;2.00;;;;;11.60;100.00;98198.75;4864648;29;101611;-76
2023/06/18 02:21:03;;;;;;;;;5.25;5.25;;;;;11.43;100.00;98169.69;4863507;29;103446;-76
2023/06/18 02:23:30;;;;;;;;;5.50;5.00;;;;;11.54;100.00;98194.19;4866342;28;101712;-76
2023/06/18 02:25:58;;;;;;;;;4.50;4.25;;;;;11.57;100.00;98203.78;4868778;28;101701;-76
2023/06/18 02:28:25;;;;;;;;;3.50;3.00;;;;;11.58;100.00;98200.00;4868381;28;101915;-76
2023/06/18 02:30:54;;;;;;;;;3.75;3.75;;;;;11.54;100.00;98199.59;4869007;28;103345;-76
2023/06/18 02:33:22;;;;;;;;;6.00;6.00;;;;;11.53;100.00;98208.75;4866478;28;101684;-76
2023/06/18 02:35:49;;;;;;;;;7.00;7.00;;;;;11.46;100.00;98210.69;4869146;29;101853;-76
2023/06/18 02:38:16;;;;;;;;;7.00;6.00;;;;;11.40;100.00;98216.13;4870419;29;101763;-76
2023/06/18 02:40:43;;;;;;;;;6.75;6.75;;;;;11.37;100.00;98214.69;4868418;29;103680;-76
2023/06/18 02:43:10;;;;;;;;;9.50;8.75;;;;;11.38;100.00;98216.34;4882998;28;102039;-78
2023/06/18 02:45:37;;;;;;;;;7.75;6.25;;;;;11.38;100.00;98216.34;4868894;29;101555;-76
2023/06/18 02:48:04;;;;;;;;;3.25;2.75;;;;;11.33;100.00;98213.47;4868153;28;101618;-76
2023/06/18 02:50:31;;;;;;;;;5.75;5.00;;;;;11.33;100.00;98224.28;4866712;28;103586;-76
2023/06/18 02:52:59;;;;;;;;;6.00;6.00;;;;;11.35;100.00;98232.19;4869324;29;101485;-76
2023/06/18 02:55:26;;;;;;;;;5.50;5.50;;;;;11.27;100.00;98214.31;4868491;29;101701;-76
2023/06/18 02:57:52;;;;;;;;;7.00;6.00;;;;;11.33;100.00;98224.28;4869813;29;101635;-76
2023/06/18 03:00:21;;;;;;;;;8.00;7.25;;;;;11.35;100.00;98229.47;4866730;28;103725;-75
2023/06/18 03:02:48;;;;;;;;;7.50;5.50;;;;;11.29;100.00;98223.06;4867186;28;101593;-76
2023/06/18 03:05:15;;;;;;;;;8.50;7.00;;;;;11.29;100.00;98223.06;4869076;29;101649;-76
2023/06/18 03:07:43;;;;;;;;;6.75;6.00;;;;;11.28;100.00;98215.97;4867852;28;101375;-76
2023/06/18 03:10:10;;;;;;;;;4.25;4.00;;;;;11.32;100.00;98222.63;4865717;28;103552;-76
2023/06/18 03:12:37;;;;;;;;;5.50;5.50;;;;;11.34;100.00;98225.97;4868284;28;101658;-76
2023/06/18 03:15:05;;;;;;;;;7.75;7.25;;;;;11.32;100.00;98224.50;4867690;29;101569;-76
2023/06/18 03:17:32;;;;;;;;;5.00;4.25;;;;;11.38;100.00;98229.06;4868974;28;101584;-76
2023/06/18 03:19:59;;;;;;;;;7.00;7.00;;;;;11.39;100.00;98220.69;4869279;29;103890;-76
2023/06/18 03:22:28;;;;;;;;;9.00;9.00;;;;;11.40;100.00;98219.66;4882839;28;101921;-76
2023/06/18 03:24:56;;;;;;;;;5.25;4.00;;;;;11.32;100.00;98203.69;4869025;28;101662;-76
2023/06/18 03:27:24;;;;;;;;;9.75;8.75;;;;;11.43;100.00;98223.84;4852465;29;102277;-76
2023/06/18 03:29:51;;;;;;;;;8.25;7.50;;;;;11.45;100.00;98214.44;4866928;29;104449;-75
2023/06/18 03:32:21;;;;;;;;;7.75;6.75;;;;;11.46;100.00;98212.56;4868003;28;103260;-76
2023/06/18 03:34:48;;;;;;;;;5.25;4.75;;;;;11.48;100.00;98215.91;4866644;29;101474;-76
2023/06/18 03:37:17;;;;;;;;;6.25;5.00;;;;;11.56;100.00;98221.88;4868398;29;101479;-76
2023/06/18 03:39:44;;;;;;;;;6.00;5.25;;;;;11.59;100.00;98221.44;4867772;29;103474;-76
2023/06/18 03:42:12;;;;;;;;;4.00;4.00;;;;;11.66;100.00;98234.13;4880584;28;101905;-76
2023/06/18 03:44:39;;;;;;;;;6.00;6.00;;;;;11.67;100.00;98223.06;4867055;29;101586;-76
2023/06/18 03:47:07;;;;;;;;;10.50;8.00;;;;;11.81;100.00;98223.84;4867932;28;101653;-76
2023/06/18 03:49:34;;;;;;;;;4.75;4.75;;;;;11.81;100.00;98216.56;4867833;29;103392;-77
2023/06/18 03:52:01;;;;;;;;;8.00;6.25;;;;;11.87;100.00;98207.56;4867522;29;101503;-78
2023/06/18 03:54:28;;;;;;;;;6.00;6.00;;;;;12.09;100.00;98235.13;4867700;29;101543;-78
2023/06/18 03:56:55;;;;;;;;;7.00;7.00;;;;;12.13;100.00;98220.09;4868534;28;101541;-75
2023/06/18 03:59:22;;;;;;;;;4.00;4.00;;;;;12.21;100.00;98225.22;4867078;28;103437;-78
2023/06/18 04:01:49;;;;;;;;;4.75;4.00;;;;;12.20;100.00;98218.16;4868501;29;101693;-78
2023/06/18 04:04:17;;;;;;;;;5.75;5.50;;;;;12.42;100.00;98230.28;4865275;28;101730;-78
2023/06/18 04:06:44;;;;;;;;;4.00;3.25;;;;;12.57;100.00;98239.94;4869374;29;101667;-78
2023/06/18 04:09:11;;;;;;;;;3.75;3.00;;;;;12.68;100.00;98245.47;4867431;29;103349;-77
2023/06/18 04:11:42;;;;;;;;;7.00;7.00;;;;;12.75;100.00;98239.97;4867483;29;101737;-77
2023/06/18 04:14:09;;;;;;;;;3.75;3.75;;;;;12.85;100.00;98235.69;4865424;28;101734;-77
2023/06/18 04:16:36;;;;;;;;;5.50;4.75;;;;;13.00;100.00;98243.50;4868192;28;101680;-77
2023/06/18 04:19:03;;;;;;;;;8.00;4.75;;;;;13.07;100.00;98238.81;4867161;29;103431;-77
2023/06/18 04:21:30;;;;;;;;;4.50;4.50;;;;;13.16;100.00;98237.47;4865674;29;101498;-77
2023/06/18 04:23:57;;;;;;;;;4.25;3.75;;;;;13.27;100.00;98227.75;4867422;28;101995;-77
2023/06/18 04:26:24;;;;;;;;;4.50;4.50;;;;;13.39;100.00;98226.75;4868983;29;101913;-77
2023/06/18 04:28:51;;;;;;;;;3.50;3.50;;;;;13.55;100.00;98228.03;4864889;28;103470;-77
2023/06/18 04:31:18;;;;;;;;;12.50;10.75;;;;;13.68;100.00;98251.47;4851306;29;101669;-77
2023/06/18 04:33:45;;;;;;;;;9.00;8.75;;;;;13.89;100.00;98250.97;4865246;29;102150;-77
2023/06/18 04:36:14;;;;;;;;;8.00;8.00;;;;;14.12;100.00;98252.94;4868576;29;101780;-77
2023/06/18 04:38:41;;;;;;;;;3.50;3.50;;;;;14.36;100.00;98253.88;4865910;29;103420;-77
2023/06/18 04:41:08;;;;;;;;;7.50;7.25;;;;;14.56;100.00;98259.78;4868514;29;101601;-77
2023/06/18 04:43:35;;;;;;;;;5.00;5.00;;;;;14.72;100.00;98248.22;4866596;29;101765;-77
2023/06/18 04:46:02;;;;;;;;;4.25;4.25;;;;;14.81;98.86;98249.53;4865476;28;102320;-77
2023/06/18 04:48:29;;;;;;;;;5.75;4.50;;;;;15.29;97.97;98267.47;4865013;29;103518;-77
2023/06/18 04:50:58;;;;;;;;;6.25;6.00;;;;;15.87;96.99;98261.91;4866191;28;101770;-77
2023/06/18 04:53:25;;;;;;;;;6.50;6.50;;;;;16.35;92.54;98267.72;4866667;29;101870;-77
2023/06/18 04:55:52;;;;;;;;;6.00;5.75;;;;;16.55;91.02;98266.41;4867198;28;103228;-77
2023/06/18 04:58:20;;;;;;;;;5.25;5.25;;;;;16.61;90.74;98268.19;4878789;28;103454;-76
2023/06/18 05:00:47;;;;;;;;;10.00;10.00;;;;;16.45;92.50;98256.97;4865799;28;103346;-77
2023/06/18 05:03:14;;;;;;;;;7.00;7.00;;;;;16.62;89.87;98258.91;4865562;29;101619;-76
2023/06/18 05:05:42;;;;;;;;;8.00;8.00;;;;;16.76;90.11;98271.97;4867992;29;101812;-77
2023/06/18 05:08:09;;;;;;;;;8.25;7.75;;;;;16.95;88.85;98265.19;4866951;29;103363;-76
2023/06/18 05:10:36;;;;;;;;;6.75;6.75;;;;;17.15;87.47;98270.13;4867903;28;101570;-76
2023/06/18 05:13:03;;;;;;;;;10.00;8.50;;;;;17.27;86.29;98264.56;4863738;28;101761;-76
2023/06/18 05:15:30;;;;;;;;;11.50;9.50;;;;;17.31;87.40;98269.25;4864772;28;102133;-76
2023/06/18 05:17:57;;;;;;;;;9.00;8.50;;;;;17.73;84.96;98276.94;4866847;29;104218;-76
2023/06/18 05:20:24;;;;;;;;;8.25;8.25;;;;;17.94;84.26;98278.00;4867180;28;101505;-76
2023/06/18 05:22:51;;;;;;;;;11.00;10.00;;;;;18.14;83.82;98267.31;4867665;28;101518;-76
2023/06/18 05:25:18;;;;;;;;;7.75;7.25;;;;;18.46;83.12;98275.56;4867495;29;101663;-76
2023/06/18 05:27:45;;;;;;;;;7.00;7.00;;;;;18.77;81.79;98283.00;4866608;28;103335;-75
2023/06/18 05:30:12;;;;;;;;;9.00;8.00;;;;;18.95;79.75;98273.53;4865674;28;101614;-76
2023/06/18 05:32:40;;;;;;;;;8.00;8.00;;;;;19.25;81.63;98294.84;4867275;29;102451;-76
2023/06/18 05:35:07;;;;;;;;;7.33;7.00;;;;;19.29;78.42;98296.78;4868410;29;102053;-76
2023/06/18 05:37:34;;;;;;;;;7.67;7.67;;;;;19.27;79.60;98290.75;4866170;28;103288;-76
2023/06/18 05:40:01;;;;;;;;;14.33;13.33;;;;;19.02;77.31;98280.44;4866922;28;101866;-77
2023/06/18 05:42:47;;;;;;;;;21.75;20.50;;;;;19.00;79.57;98282.59;4866954;29;101281;-76
2023/06/18 05:45:14;;;;;;;;;12.00;11.67;;;;;19.37;77.87;98287.22;4865518;28;101484;-76
2023/06/18 05:47:41;;;;;;;;;18.75;18.50;;;;;19.42;79.51;98290.84;4866373;29;103359;-76
2023/06/18 05:50:09;;;;;;;;;11.67;11.67;;;;;19.54;76.67;98283.25;4866930;29;102150;-76
2023/06/18 05:52:36;;;;;;;;;15.00;14.33;;;;;19.44;77.42;98298.84;4866927;28;101379;-75
2023/06/18 05:55:06;;;;;;;;;13.67;13.67;;;;;19.17;77.15;98279.72;4867037;29;101903;-76
2023/06/18 05:57:33;;;;;;;;;16.33;15.33;;;;;19.33;78.31;98288.84;4865677;29;103346;-76
2023/06/18 06:00:00;;;;;;;;;14.67;11.33;;;;;19.67;76.11;98292.94;4865826;29;101607;-76
2023/06/18 06:02:27;;;;;;;;;12.00;11.00;;;;;19.93;75.53;98296.59;4867283;28;102145;-77
2023/06/18 06:04:54;;;;;;;;;17.33;14.00;;;;;19.55;77.32;98295.88;4867334;28;101828;-76
2023/06/18 06:07:21;;;;;;;;;1.33;1.33;;;;;19.71;75.57;98299.53;4869039;29;103437;-76
2023/06/18 06:09:48;;;;;;;;;11.00;10.00;;;;;19.60;76.23;98303.31;4869817;28;101600;-76
2023/06/18 06:12:16;;;;;;;;;10.33;9.67;;;;;19.36;76.39;98297.38;4870547;28;101694;-76
2023/06/18 06:14:43;;;;;;;;;9.00;8.00;;;;;19.32;76.56;98301.72;4871578;28;101664;-76
2023/06/18 06:17:10;;;;;;;;;10.33;10.00;;;;;19.16;78.36;98292.59;4868746;28;103345;-76
2023/06/18 06:19:37;;;;;;;;;12.33;11.33;;;;;18.64;77.64;98292.44;4867841;28;102298;-76
2023/06/18 06:22:04;;;;;;;;;9.67;9.67;;;;;18.71;78.46;98262.94;4869356;29;101429;-76
2023/06/18 06:24:31;;;;;;;;;7.00;6.00;;;;;19.46;75.89;98297.47;4867436;28;102298;-76
2023/06/18 06:26:58;;;;;;;;;7.33;6.67;;;;;19.52;76.52;98296.41;4868422;29;103384;-76
2023/06/18 06:29:25;;;;;;;;;11.67;10.00;;;;;18.97;77.90;98298.75;4868634;28;102742;-76
2023/06/18 06:31:52;;;;;;;;;10.67;9.00;;;;;18.59;79.18;98297.91;4869453;29;101618;-75
2023/06/18 06:34:21;;;;;;;;;8.33;8.33;;;;;18.45;80.20;98293.06;4870571;29;101383;-76
2023/06/18 06:36:49;;;;;;;;;8.00;8.00;;;;;18.20;79.67;98285.41;4868242;29;103530;-76
2023/06/18 06:39:18;;;;;;;;;10.00;9.33;;;;;18.19;81.14;98292.00;4867300;29;101607;-76
2023/06/18 06:41:45;;;;;;;;;6.00;6.00;;;;;18.24;81.02;98300.22;4867639;28;101597;-76
2023/06/18 06:44:12;;;;;;;;;6.67;6.67;;;;;18.58;82.52;98301.72;4870457;29;101522;-76
2023/06/18 06:46:39;;;;;;;;;9.00;9.00;;;;;18.81;80.86;98302.47;4866551;29;103655;-76
2023/06/18 06:49:07;;;;;;;;;10.00;9.00;;;;;19.08;77.94;98267.59;4868732;29;101437;-76
2023/06/18 06:51:35;;;;;;;;;5.00;4.00;;;;;19.79;75.15;98300.94;4867573;29;101692;-76
2023/06/18 06:54:03;;;;;;;;;8.00;8.00;;;;;20.03;74.54;98271.94;4870018;29;101819;-77
2023/06/18 06:56:31;;;;;;;;;8.00;7.67;;;;;20.62;71.87;98305.34;4866034;28;103378;-76
2023/06/18 06:58:58;;;;;;;;;10.67;9.67;;;;;20.59;74.44;98307.78;4865026;28;101512;-76
2023/06/18 07:01:25;;;;;;;;;21.00;20.00;;;;;19.97;72.69;98298.53;4867868;28;101654;-76
2023/06/18 07:03:53;;;;;;;;;12.67;12.00;;;;;20.09;75.65;98301.03;4865248;28;101844;-75
2023/06/18 07:06:20;;;;;;;;;12.00;10.00;;;;;19.89;73.38;98295.50;4868342;28;103788;-76
2023/06/18 07:08:47;;;;;;;;;13.67;13.00;;;;;19.37;76.73;98307.25;4867584;29;101929;-75
2023/06/18 07:11:14;;;;;;;;;9.33;9.33;;;;;19.67;73.74;98311.31;4868572;29;101495;-74
2023/06/18 07:13:41;;;;;;;;;8.67;8.67;;;;;19.36;75.20;98313.03;4870727;28;101426;-75
2023/06/18 07:16:08;;;;;;;;;7.33;7.33;;;;;19.51;76.45;98313.97;4850227;29;103419;-74
2023/06/18 07:18:35;;;;;;;;;7.67;7.00;;;;;19.55;74.69;98319.72;4867442;28;102259;-74
2023/06/18 07:21:02;;;;;;;;;5.33;4.67;;;;;19.55;73.70;98306.84;4868036;28;101732;-75
2023/06/18 07:23:29;;;;;;;;;4.67;4.67;;;;;19.58;74.85;98317.31;4868965;29;101956;-74
2023/06/18 07:25:56;;;;;;;;;6.67;6.33;;;;;19.66;76.23;98317.88;4867620;29;103335;-74
2023/06/18 07:28:23;;;;;;;;;7.00;6.00;;;;;19.57;73.95;98318.38;4869328;29;101576;-75
2023/06/18 07:30:50;;;;;;;;;7.33;5.33;;;;;19.58;72.02;98317.31;4868432;29;101575;-74
2023/06/18 07:33:17;;;;;;;;;5.00;5.00;;;;;19.64;73.16;98317.31;4869388;28;102114;-76
2023/06/18 07:35:44;;;;;;;;;6.00;5.33;;;;;19.63;72.63;98312.94;4868561;29;103288;-76
2023/06/18 07:38:11;;;;;;;;;5.67;5.00;;;;;19.79;73.60;98314.66;4863203;28;102110;-75
2023/06/18 07:40:38;;;;;;;;;5.00;5.00;;;;;19.87;71.26;98319.63;4868857;29;102603;-75
2023/06/18 07:43:05;;;;;;;;;5.33;4.67;;;;;19.97;72.01;98322.41;4865970;28;101779;-76
2023/06/18 07:45:32;;;;;;;;;5.00;5.00;;;;;20.07;70.48;98318.88;4867767;28;103455;-76
2023/06/18 07:47:59;;;;;;;;;5.00;4.67;;;;;20.29;72.12;98323.09;4868529;29;101495;-75
2023/06/18 07:50:27;;;;;;;;;4.67;4.67;;;;;20.38;68.59;98313.25;4868517;29;101558;-75
2023/06/18 07:52:53;;;;;;;;;8.33;7.00;;;;;20.47;68.01;98319.03;4869385;29;101686;-76
2023/06/18 07:55:21;;;;;;;;;11.00;9.33;;;;;20.47;66.24;98302.56;4867534;29;103332;-75
2023/06/18 07:57:48;;;;;;;;;5.00;4.67;;;;;20.60;67.32;98315.75;4864628;28;101671;-75
2023/06/18 08:00:15;;;;;;;;;12.33;10.67;;;;;20.26;68.00;98318.09;4868080;29;101612;-76
2023/06/18 08:02:42;;;;;;;;;8.67;8.67;;;;;20.63;67.44;98308.88;4865390;28;101841;-76
2023/06/18 08:05:10;;;;;;;;;10.33;8.67;;;;;20.86;66.00;98300.09;4865485;28;103504;-76
2023/06/18 08:07:37;;;;;;;;;8.33;8.00;;;;;21.16;65.71;98313.91;4866771;28;101785;-76
2023/06/18 08:10:05;;;;;;;;;7.00;7.00;;;;;21.15;62.58;98314.16;4850488;29;102365;-76
2023/06/18 08:12:33;;;;;;;;;9.00;9.00;;;;;21.06;66.03;98310.28;4868399;28;101816;-76
2023/06/18 08:15:00;;;;;;;;;12.00;11.33;;;;;21.01;67.45;98318.53;4866487;28;103297;-76
2023/06/18 08:17:27;;;;;;;;;7.00;7.00;;;;;21.24;66.04;98307.84;4868826;28;101640;-75
2023/06/18 08:19:54;;;;;;;;;11.00;10.67;;;;;21.11;65.71;98313.88;4866396;28;101557;-75
2023/06/18 08:22:21;;;;;;;;;7.33;6.67;;;;;21.33;66.83;98317.16;4866039;28;101777;-76
2023/06/18 08:24:48;;;;;;;;;9.67;9.67;;;;;21.48;67.08;98319.03;4867218;29;103490;-76
2023/06/18 08:27:15;;;;;;;;;9.33;8.33;;;;;21.72;65.51;98316.53;4865530;28;103298;-76
2023/06/18 08:29:42;;;;;;;;;9.00;7.33;;;;;21.97;63.17;98304.66;4867042;29;101665;-76
2023/06/18 08:32:10;;;;;;;;;7.00;7.00;;;;;22.16;61.21;98311.13;4867553;28;101702;-76
2023/06/18 08:34:42;;;;;;;;;7.00;7.00;;;;;22.37;61.68;98304.44;4864213;28;103624;-76
2023/06/18 08:37:10;;;;;;;;;8.00;7.00;;;;;22.21;62.29;98311.94;4882004;28;101563;-75
2023/06/18 08:39:37;;;;;;;;;7.00;7.00;;;;;22.02;62.01;98305.41;4867034;28;101618;-75
2023/06/18 08:42:06;;;;;;;;;8.67;8.67;;;;;21.99;61.46;98308.75;4863488;28;101680;-76
2023/06/18 08:44:34;;;;;;;;;8.33;8.33;;;;;21.68;62.68;98305.25;4866835;29;102954;-76
2023/06/18 08:47:06;;;;;;;;;7.67;7.67;;;;;21.44;62.82;98309.72;4864219;28;101832;-75
2023/06/18 08:49:33;;;;;;;;;5.33;5.33;;;;;21.24;64.65;98302.34;4860457;28;101518;-76
2023/06/18 08:52:05;;;;;;;;;8.33;8.00;;;;;21.00;66.17;98314.13;4867332;28;101663;-75
2023/06/18 08:54:34;;;;;;;;;7.00;7.00;;;;;20.64;65.13;98263.84;4865096;28;103750;-75
2023/06/18 08:57:13;;;;;;;;;5.33;5.33;;;;;20.83;65.05;98308.91;4865872;28;101846;-75
2023/06/18 08:59:42;;;;;;;;;6.00;6.00;;;;;20.80;66.90;98312.22;4865598;28;101656;-76
2023/06/18 09:02:14;;;;;;;;;5.00;4.33;;;;;20.72;65.30;98302.56;4866337;29;101797;-75
2023/06/18 09:04:41;;;;;;;;;3.67;3.00;;;;;20.68;64.79;98300.66;4865984;28;103293;-75
2023/06/18 09:07:08;;;;;;;;;6.00;6.00;;;;;20.61;65.16;98308.34;4865234;28;101470;-76
2023/06/18 09:09:36;;;;;;;;;6.00;5.67;;;;;20.60;65.68;98306.69;4867292;29;101788;-75
2023/06/18 09:12:03;;;;;;;;;4.00;3.00;;;;;20.25;65.04;98294.50;4868400;29;102479;-76
2023/06/18 09:14:30;;;;;;;;;8.00;8.00;;;;;20.26;66.40;98306.31;4868357;28;103369;-74
2023/06/18 09:16:58;;;;;;;;;6.00;5.33;;;;;20.41;65.36;98303.63;4864097;28;101457;-74
2023/06/18 09:19:26;;;;;;;;;7.33;6.67;;;;;20.37;65.74;98306.09;4861805;28;101786;-74
2023/06/18 09:21:53;;;;;;;;;4.00;4.00;;;;;20.41;66.98;98300.88;4866589;29;101597;-74
2023/06/18 09:24:24;;;;;;;;;5.00;5.00;;;;;20.55;66.38;98301.19;4861341;28;103109;-74
2023/06/18 09:27:01;;;;;;;;;6.00;5.00;;;;;20.64;67.31;98297.63;4865565;28;101528;-75
2023/06/18 09:29:31;;;;;;;;;8.33;7.00;;;;;20.53;63.82;98295.97;4862704;28;101533;-75
2023/06/18 09:32:10;;;;;;;;;5.67;5.00;;;;;20.70;64.10;98306.72;4864098;28;101749;-75
2023/06/18 09:34:38;;;;;;;;;5.33;5.00;;;;;20.80;63.33;98302.03;4865623;28;103702;-75
2023/06/18 09:37:07;;;;;;;;;5.67;5.67;;;;;20.91;63.93;98309.19;4867113;28;101499;-75
2023/06/18 09:39:40;;;;;;;;;8.67;8.00;;;;;20.86;63.49;98305.59;4868384;28;101619;-78
2023/06/18 09:42:11;;;;;;;;;7.00;6.00;;;;;20.87;64.47;98294.34;4852826;29;101539;-75
2023/06/18 09:44:38;;;;;;;;;6.00;6.00;;;;;21.10;63.97;98301.22;4863838;28;103600;-75
2023/06/18 09:47:12;;;;;;;;;5.00;5.00;;;;;21.14;62.96;98291.34;4869521;29;101429;-75
2023/06/18 09:49:42;;;;;;;;;5.00;5.00;;;;;21.25;59.50;98301.22;4864133;28;101445;-75
2023/06/18 09:52:10;;;;;;;;;5.00;5.00;;;;;21.46;61.24;98291.00;4868534;29;101515;-75
2023/06/18 09:54:40;;;;;;;;;4.33;4.33;;;;;21.52;62.29;98294.59;4867464;28;103535;-75
2023/06/18 09:57:08;;;;;;;;;5.67;5.00;;;;;21.45;60.10;98280.28;4866617;28;101509;-75
2023/06/18 09:59:36;;;;;;;;;5.67;5.00;;;;;21.50;63.84;98292.09;4868046;28;101773;-75
2023/06/18 10:02:05;;;;;;;;;4.33;3.67;;;;;21.62;63.34;98287.09;4870283;29;102031;-75
2023/06/18 10:04:33;;;;;;;;;5.00;5.00;;;;;21.45;60.25;98278.34;4865777;28;102605;-76
2023/06/18 10:07:06;;;;;;;;;6.00;5.33;;;;;21.34;61.55;98285.78;4864310;28;103379;-76
2023/06/18 10:09:36;;;;;;;;;4.00;3.33;;;;;21.40;63.58;98283.84;4865942;28;101643;-75
2023/06/18 10:12:05;;;;;;;;;6.00;5.00;;;;;21.41;65.33;98291.00;4871798;28;101916;-75
2023/06/18 10:14:35;;;;;;;;;4.00;4.00;;;;;21.29;62.45;98285.81;4853959;29;103507;-75
2023/06/18 10:17:23;;;;;;;;;6.33;5.00;;;;;21.17;62.31;98281.69;4863309;28;102022;-75
2023/06/18 10:20:03;;;;;;;;;8.33;7.33;;;;;20.82;65.19;98285.28;4866795;28;101698;-76
2023/06/18 10:22:37;;;;;;;;;6.67;6.00;;;;;20.78;65.61;98285.00;4865495;28;101862;-75
2023/06/18 10:25:06;;;;;;;;;11.00;10.00;;;;;20.45;66.80;98272.59;4865842;28;102192;-76
2023/06/18 10:27:35;;;;;;;;;10.00;10.00;;;;;20.54;65.10;98286.63;4868802;29;101697;-76
2023/06/18 10:30:04;;;;;;;;;8.67;8.33;;;;;20.54;64.14;98283.03;4868242;28;102070;-76
2023/06/18 10:32:34;;;;;;;;;8.33;8.00;;;;;20.58;66.76;98295.97;4866896;28;101774;-75
2023/06/18 10:35:07;;;;;;;;;6.00;5.00;;;;;20.52;64.55;98252.28;4868206;29;103541;-75
2023/06/18 10:37:36;;;;;;;;;11.00;10.00;;;;;20.66;63.50;98284.47;4869151;29;101960;-75
2023/06/18 10:40:05;;;;;;;;;8.00;7.67;;;;;20.99;61.98;98291.31;4868742;28;101517;-75
2023/06/18 10:42:34;;;;;;;;;7.00;7.00;;;;;21.34;62.31;98285.00;4867646;28;101762;-75
2023/06/18 10:45:14;;;;;;;;;8.00;8.00;;;;;21.80;62.04;98288.41;4866753;28;103672;-75
2023/06/18 10:47:43;;;;;;;;;6.67;5.33;;;;;22.18;61.31;98284.97;4868489;28;101752;-75
2023/06/18 10:50:16;;;;;;;;;5.67;5.67;;;;;22.33;57.00;98286.00;4868659;28;101777;-75
2023/06/18 10:52:49;;;;;;;;;8.33;7.67;;;;;22.42;59.64;98287.88;4868009;29;102765;-75
2023/06/18 10:55:25;;;;;;;;;7.00;7.00;;;;;22.71;57.36;98287.13;4864028;28;105097;-75
2023/06/18 10:58:02;;;;;;;;;12.00;12.00;;;;;22.23;58.95;98265.69;4868592;28;101772;-75
2023/06/18 11:00:36;;;;;;;;;9.00;9.00;;;;;22.73;59.37;98273.91;4863552;28;101631;-75
2023/06/18 11:03:10;;;;;;;;;13.00;11.00;;;;;22.33;58.52;98275.81;4868616;28;102125;-75
2023/06/18 11:05:44;;;;;;;;;8.00;8.00;;;;;22.28;59.03;98275.00;4858611;28;102645;-75
2023/06/18 11:08:15;;;;;;;;;6.00;6.00;;;;;22.13;59.85;98264.91;4865899;28;102066;-75
2023/06/18 11:10:50;;;;;;;;;9.00;8.00;;;;;21.81;58.66;98271.63;4864523;28;101600;-76
2023/06/18 11:13:17;;;;;;;;;10.33;10.33;;;;;21.42;59.48;98278.91;4865686;28;102140;-75
2023/06/18 11:16:06;;;;;;;;;12.00;12.00;;;;;20.82;61.00;98288.00;4867342;28;103525;-76
2023/06/18 11:18:34;;;;;;;;;9.67;7.67;;;;;20.79;58.90;98283.09;4871208;28;101782;-75
2023/06/18 11:21:02;;;;;;;;;7.67;6.67;;;;;20.61;60.28;98286.38;4866714;28;101702;-79
2023/06/18 11:23:32;;;;;;;;;8.00;8.00;;;;;20.43;60.50;98280.31;4868800;29;101895;-75
2023/06/18 11:26:01;;;;;;;;;6.33;6.00;;;;;20.43;60.09;98280.31;4868049;29;102536;-75
2023/06/18 11:28:31;;;;;;;;;8.00;6.67;;;;;20.48;58.56;98294.06;4868852;29;101606;-77